createdAt,value
2023-05-04T05:00:50.316Z,12.05
2023-05-04T05:01:50.041Z,12.02
2023-05-04T05:02:50.083Z,11.95
2023-05-04T05:03:50.041Z,11.98
2023-05-04T05:04:50.105Z,12.01
2023-05-04T05:05:50.005Z,11.95
2023-05-04T05:06:50.001Z,11.94
2023-05-04T05:07:49.971Z,11.99
2023-05-04T05:08:49.960Z,11.91
2023-05-04T05:09:49.962Z,11.94
2023-05-04T05:10:49.946Z,11.98
2023-05-04T05:11:54.967Z,11.88
2023-05-04T05:12:49.975Z,11.98
2023-05-04T05:13:49.903Z,11.96
2023-05-04T05:14:49.911Z,11.95
2023-05-04T05:15:49.888Z,11.98
2023-05-04T05:16:49.918Z,12.01
2023-05-04T05:17:49.899Z,12.01
2023-05-04T05:18:49.847Z,12.04
2023-05-04T05:19:49.835Z,11.95
2023-05-04T05:20:49.931Z,12.14
2023-05-04T05:21:49.812Z,12.13
2023-05-04T05:22:54.822Z,12.14
2023-05-04T05:23:49.820Z,12.12
2023-05-04T05:24:49.794Z,12.13
2023-05-04T05:25:49.780Z,12.24
2023-05-04T05:26:49.760Z,12.23
2023-05-04T05:27:49.753Z,12.27
2023-05-04T05:28:49.738Z,12.24
2023-05-04T05:29:49.721Z,12.31
2023-05-04T05:30:49.758Z,12.27
2023-05-04T05:31:49.701Z,12.39
2023-05-04T05:32:49.860Z,12.49
2023-05-04T05:33:54.698Z,12.47
2023-05-04T05:34:49.663Z,12.50
2023-05-04T05:35:49.659Z,12.52
2023-05-04T05:36:49.661Z,12.53
2023-05-04T05:37:49.635Z,12.56
2023-05-04T05:38:50.340Z,12.57
2023-05-04T05:39:49.618Z,12.57
2023-05-04T05:40:49.610Z,12.67
2023-05-04T05:41:49.587Z,12.65
2023-05-04T05:42:49.580Z,12.71
2023-05-04T05:43:49.577Z,12.77
2023-05-04T05:44:54.615Z,12.86
2023-05-04T05:45:49.598Z,12.90
2023-05-04T05:46:49.538Z,13.14
2023-05-04T05:47:49.548Z,13.15
2023-05-04T05:48:49.542Z,13.29
2023-05-04T05:49:49.499Z,13.33
2023-05-04T05:50:49.516Z,13.70
2023-05-04T05:51:49.472Z,13.75
2023-05-04T05:52:49.464Z,14.02
2023-05-04T05:53:49.457Z,14.17
2023-05-04T05:54:49.449Z,14.17
2023-05-04T05:55:54.485Z,14.18
2023-05-04T05:56:49.438Z,14.17
2023-05-04T05:57:49.406Z,14.35
2023-05-04T05:58:49.390Z,14.55
2023-05-04T05:59:49.380Z,14.65
2023-05-04T06:00:49.388Z,14.72
2023-05-04T06:01:49.359Z,14.72
2023-05-04T06:02:49.446Z,14.61
2023-05-04T06:03:49.543Z,14.70
2023-05-04T06:04:49.400Z,14.77
2023-05-04T06:05:49.322Z,15.10
2023-05-04T06:06:54.335Z,15.17
2023-05-04T06:07:49.288Z,15.39
2023-05-04T06:08:49.296Z,15.59
2023-05-04T06:09:49.266Z,15.62
2023-05-04T06:10:49.269Z,15.67
2023-05-04T06:11:49.247Z,15.50
2023-05-04T06:12:49.297Z,15.47
2023-05-04T06:13:49.220Z,15.50
2023-05-04T06:14:49.227Z,15.49
2023-05-04T06:15:49.226Z,15.54
2023-05-04T06:16:49.227Z,15.69
2023-05-04T06:17:54.226Z,15.67
2023-05-04T06:18:49.167Z,15.71
2023-05-04T06:19:50.903Z,15.83
2023-05-04T06:20:49.181Z,15.89
2023-05-04T06:21:49.142Z,15.89
2023-05-04T06:22:49.120Z,16.07
2023-05-04T06:23:49.107Z,16.20
2023-05-04T06:24:49.099Z,16.63
2023-05-04T06:25:49.090Z,16.81
2023-05-04T06:26:49.105Z,17.11
2023-05-04T06:27:49.062Z,17.31
2023-05-04T06:28:54.082Z,17.26
2023-05-04T06:29:49.038Z,17.38
2023-05-04T06:30:49.024Z,17.37
2023-05-04T06:31:49.058Z,17.16
2023-05-04T06:32:49.054Z,17.30
2023-05-04T06:33:48.992Z,17.22
2023-05-04T06:34:48.981Z,17.23
2023-05-04T06:35:48.965Z,17.21
2023-05-04T06:36:48.991Z,17.31
2023-05-04T06:38:48.949Z,17.40
2023-05-04T06:39:53.959Z,17.36
2023-05-04T06:40:48.914Z,17.38
2023-05-04T06:41:48.908Z,17.23
2023-05-04T06:42:48.888Z,17.08
2023-05-04T06:43:48.879Z,17.11
2023-05-04T06:44:48.889Z,17.14
2023-05-04T06:45:48.904Z,17.00
2023-05-04T06:46:48.862Z,16.96
2023-05-04T06:47:48.872Z,16.98
2023-05-04T06:48:48.820Z,17.04
2023-05-04T06:49:48.804Z,17.01
2023-05-04T06:50:53.833Z,16.85
2023-05-04T06:51:48.799Z,16.70
2023-05-04T06:52:48.818Z,16.66
2023-05-04T06:53:48.769Z,16.64
2023-05-04T06:54:48.756Z,16.64
2023-05-04T06:55:48.750Z,16.70
2023-05-04T06:56:48.745Z,16.83
2023-05-04T06:57:48.723Z,16.96
2023-05-04T06:58:48.710Z,17.12
2023-05-04T06:59:48.695Z,17.36
2023-05-04T07:00:48.727Z,17.25
2023-05-04T07:01:53.697Z,17.31
2023-05-04T07:02:48.691Z,17.33
2023-05-04T07:03:48.675Z,17.46
2023-05-04T07:04:48.640Z,17.51
2023-05-04T07:05:48.678Z,17.51
2023-05-04T07:06:48.619Z,17.58
2023-05-04T07:07:51.089Z,17.62
2023-05-04T07:08:48.646Z,17.79
2023-05-04T07:09:48.588Z,17.93
2023-05-04T07:10:48.579Z,17.96
2023-05-04T07:11:48.614Z,17.74
2023-05-04T07:12:53.599Z,17.71
2023-05-04T07:13:48.540Z,17.54
2023-05-04T07:14:48.552Z,17.58
2023-05-04T07:15:48.536Z,17.49
2023-05-04T07:16:48.627Z,17.48
2023-05-04T07:17:48.526Z,17.44
2023-05-04T07:18:48.480Z,17.40
2023-05-04T07:19:48.467Z,17.38
2023-05-04T07:20:48.471Z,17.31
2023-05-04T07:21:48.500Z,17.41
2023-05-04T07:22:48.434Z,17.48
2023-05-04T07:23:53.539Z,17.51
2023-05-04T07:24:48.438Z,17.55
2023-05-04T07:25:48.422Z,17.70
2023-05-04T07:26:48.391Z,17.93
2023-05-04T07:27:48.404Z,17.90
2023-05-04T07:28:48.369Z,17.71
2023-05-04T07:29:48.361Z,17.74
2023-05-04T07:30:48.359Z,17.81
2023-05-04T07:31:48.360Z,17.90
2023-05-04T07:32:48.357Z,18.02
2023-05-04T07:33:48.323Z,18.15
2023-05-04T07:34:53.321Z,18.30
2023-05-04T07:35:48.303Z,18.47
2023-05-04T07:36:48.282Z,18.65
2023-05-04T07:37:48.266Z,18.84
2023-05-04T07:38:48.262Z,18.91
2023-05-04T07:39:48.299Z,18.90
2023-05-04T07:40:48.241Z,18.99
2023-05-04T07:41:49.682Z,18.94
2023-05-04T07:42:48.237Z,19.08
2023-05-04T07:43:48.192Z,19.11
2023-05-04T07:44:48.207Z,19.18
2023-05-04T07:45:53.241Z,19.29
2023-05-04T07:46:48.160Z,19.31
2023-05-04T07:47:48.168Z,19.33
2023-05-04T07:48:48.139Z,19.50
2023-05-04T07:49:48.139Z,19.47
2023-05-04T07:50:48.113Z,19.06
2023-05-04T07:51:48.126Z,18.88
2023-05-04T07:52:48.097Z,18.84
2023-05-04T07:53:48.077Z,18.82
2023-05-04T07:54:48.077Z,18.85
2023-05-04T07:55:48.380Z,19.11
2023-05-04T07:56:53.072Z,19.37
2023-05-04T07:57:48.064Z,19.62
2023-05-04T07:58:48.030Z,19.77
2023-05-04T07:59:48.026Z,19.63
2023-05-04T08:00:48.003Z,19.50
2023-05-04T08:01:48.021Z,19.36
2023-05-04T08:02:48.077Z,19.58
2023-05-04T08:03:48.005Z,19.98
2023-05-04T08:04:47.955Z,20.48
2023-05-04T08:05:47.955Z,20.82
2023-05-04T08:06:47.932Z,21.35
2023-05-04T08:07:52.943Z,21.88
2023-05-04T08:08:47.915Z,22.07
2023-05-04T08:09:47.938Z,21.74
2023-05-04T08:10:47.931Z,21.52
2023-05-04T08:11:48.285Z,21.71
2023-05-04T08:12:47.920Z,21.65
2023-05-04T08:13:47.862Z,21.61
2023-05-04T08:14:47.859Z,21.56
2023-05-04T08:15:47.838Z,20.99
2023-05-04T08:16:47.865Z,20.41
2023-05-04T08:17:47.821Z,20.18
2023-05-04T08:18:52.833Z,20.06
2023-05-04T08:19:47.806Z,20.16
2023-05-04T08:20:47.809Z,20.31
2023-05-04T08:21:47.770Z,20.33
2023-05-04T08:22:47.776Z,20.06
2023-05-04T08:23:47.743Z,20.03
2023-05-04T08:24:47.740Z,20.03
2023-05-04T08:25:47.737Z,20.10
2023-05-04T08:26:59.729Z,19.84
2023-05-04T08:27:47.749Z,19.91
2023-05-04T08:28:47.713Z,19.81
2023-05-04T08:29:47.682Z,19.88
2023-05-04T08:30:47.678Z,19.98
2023-05-04T08:31:52.721Z,20.16
2023-05-04T08:32:47.703Z,20.18
2023-05-04T08:33:47.640Z,19.84
2023-05-04T08:34:47.647Z,19.63
2023-05-04T08:35:47.611Z,19.73
2023-05-04T08:36:47.627Z,20.06
2023-05-04T08:37:47.591Z,20.10
2023-05-04T08:38:47.586Z,20.13
2023-05-04T08:39:47.584Z,19.98
2023-05-04T08:40:49.973Z,19.73
2023-05-04T08:41:47.555Z,19.58
2023-05-04T08:42:52.674Z,19.51
2023-05-04T08:43:47.538Z,19.48
2023-05-04T08:44:47.526Z,19.62
2023-05-04T08:45:47.551Z,19.39
2023-05-04T08:46:47.509Z,19.37
2023-05-04T08:47:47.528Z,19.26
2023-05-04T08:48:47.489Z,19.32
2023-05-04T08:49:47.465Z,19.46
2023-05-04T08:50:47.451Z,19.68
2023-05-04T08:51:47.446Z,19.61
2023-05-04T08:52:47.446Z,19.50
2023-05-04T08:53:52.503Z,19.41
2023-05-04T08:54:47.413Z,19.18
2023-05-04T08:55:47.393Z,19.08
2023-05-04T08:56:47.394Z,19.29
2023-05-04T08:57:48.581Z,19.51
2023-05-04T08:58:47.413Z,19.63
2023-05-04T08:59:47.368Z,19.77
2023-05-04T09:00:47.381Z,20.03
2023-05-04T09:01:47.355Z,20.16
2023-05-04T09:02:47.452Z,20.39
2023-05-04T09:03:47.436Z,20.54
2023-05-04T09:04:52.312Z,20.21
2023-05-04T09:05:47.297Z,20.08
2023-05-04T09:06:47.272Z,19.81
2023-05-04T09:07:47.266Z,19.92
2023-05-04T09:08:47.252Z,19.80
2023-05-04T09:09:47.244Z,19.98
2023-05-04T09:10:47.226Z,20.21
2023-05-04T09:11:47.235Z,20.24
2023-05-04T09:12:47.244Z,20.20
2023-05-04T09:13:47.192Z,20.35
2023-05-04T09:14:47.202Z,20.33
2023-05-04T09:15:52.192Z,20.42
2023-05-04T09:16:47.223Z,20.32
2023-05-04T09:17:56.921Z,20.43
2023-05-04T09:18:47.131Z,20.50
2023-05-04T09:19:47.126Z,20.50
2023-05-04T09:20:47.146Z,20.50
2023-05-04T09:21:47.128Z,20.32
2023-05-04T09:22:47.102Z,20.31
2023-05-04T09:23:47.159Z,20.39
2023-05-04T09:24:47.060Z,20.50
2023-05-04T09:25:47.055Z,20.48
2023-05-04T09:26:52.076Z,20.51
2023-05-04T09:27:47.031Z,20.80
2023-05-04T09:28:47.016Z,20.98
2023-05-04T09:29:47.082Z,21.17
2023-05-04T09:30:47.172Z,21.37
2023-05-04T09:31:47.000Z,21.44
2023-05-04T09:32:47.014Z,21.37
2023-05-04T09:33:46.986Z,21.09
2023-05-04T09:34:46.948Z,20.61
2023-05-04T09:35:46.984Z,20.54
2023-05-04T09:36:46.966Z,20.77
2023-05-04T09:37:51.958Z,21.06
2023-05-04T09:38:46.935Z,21.19
2023-05-04T09:39:46.897Z,21.29
2023-05-04T09:40:46.891Z,21.21
2023-05-04T09:41:46.889Z,21.19
2023-05-04T09:42:46.860Z,20.76
2023-05-04T09:43:46.870Z,20.84
2023-05-04T09:44:46.846Z,20.91
2023-05-04T09:45:46.835Z,21.03
2023-05-04T09:46:47.000Z,21.27
2023-05-04T09:47:46.868Z,21.32
2023-05-04T09:48:51.816Z,21.37
2023-05-04T09:49:46.793Z,21.19
2023-05-04T09:50:46.789Z,21.19
2023-05-04T09:51:46.766Z,21.37
2023-05-04T09:52:46.746Z,21.19
2023-05-04T09:53:46.757Z,21.27
2023-05-04T09:54:46.732Z,21.29
2023-05-04T09:55:46.722Z,21.28
2023-05-04T09:56:46.701Z,21.27
2023-05-04T09:57:46.689Z,21.24
2023-05-04T09:58:46.689Z,21.21
2023-05-04T09:59:51.705Z,20.95
2023-05-04T10:00:46.668Z,21.07
2023-05-04T10:01:46.676Z,21.31
2023-05-04T10:02:46.916Z,21.44
2023-05-04T10:03:46.637Z,21.46
2023-05-04T10:04:46.642Z,21.49
2023-05-04T10:05:46.645Z,21.50
2023-05-04T10:06:46.591Z,21.28
2023-05-04T10:07:46.618Z,21.34
2023-05-04T10:08:46.577Z,21.42
2023-05-04T10:09:46.569Z,21.50
2023-05-04T10:10:51.623Z,21.74
2023-05-04T10:11:46.537Z,21.77
2023-05-04T10:12:46.543Z,21.44
2023-05-04T10:13:46.521Z,21.32
2023-05-04T10:14:46.506Z,21.43
2023-05-04T10:15:46.536Z,21.44
2023-05-04T10:16:46.491Z,21.46
2023-05-04T10:17:46.516Z,21.56
2023-05-04T10:18:46.541Z,21.69
2023-05-04T10:19:46.446Z,21.82
2023-05-04T10:20:46.433Z,21.67
2023-05-04T10:21:51.443Z,21.74
2023-05-04T10:22:46.431Z,21.69
2023-05-04T10:23:46.405Z,21.69
2023-05-04T10:24:46.388Z,21.94
2023-05-04T10:25:46.381Z,21.91
2023-05-04T10:26:46.365Z,21.96
2023-05-04T10:27:46.358Z,22.03
2023-05-04T10:28:46.382Z,22.03
2023-05-04T10:29:46.332Z,22.18
2023-05-04T10:30:46.318Z,21.98
2023-05-04T10:31:46.369Z,22.05
2023-05-04T10:32:51.376Z,21.92
2023-05-04T10:33:46.298Z,21.82
2023-05-04T10:34:46.324Z,22.03
2023-05-04T10:35:46.267Z,22.09
2023-05-04T10:36:46.248Z,22.15
2023-05-04T10:37:46.263Z,21.96
2023-05-04T10:38:46.229Z,21.75
2023-05-04T10:39:46.224Z,21.86
2023-05-04T10:40:46.209Z,21.77
2023-05-04T10:41:46.226Z,21.94
2023-05-04T10:42:46.204Z,22.18
2023-05-04T10:43:51.198Z,21.92
2023-05-04T10:44:46.161Z,21.84
2023-05-04T10:45:46.194Z,21.61
2023-05-04T10:46:46.177Z,21.52
2023-05-04T10:47:46.245Z,21.82
2023-05-04T10:48:46.137Z,22.18
2023-05-04T10:49:46.115Z,21.82
2023-05-04T10:50:46.124Z,21.56
2023-05-04T10:51:49.347Z,21.65
2023-05-04T10:52:46.072Z,21.54
2023-05-04T10:53:46.096Z,21.62
2023-05-04T10:54:51.073Z,21.82
2023-05-04T10:55:46.050Z,21.79
2023-05-04T10:56:46.045Z,21.86
2023-05-04T10:57:46.037Z,21.88
2023-05-04T10:58:46.008Z,21.90
2023-05-04T10:59:46.021Z,21.98
2023-05-04T11:00:45.999Z,21.91
2023-05-04T11:01:46.043Z,21.92
2023-05-04T11:02:46.049Z,22.14
2023-05-04T11:03:45.978Z,22.12
2023-05-04T11:04:45.938Z,22.14
2023-05-04T11:05:51.001Z,22.35
2023-05-04T11:06:45.925Z,22.47
2023-05-04T11:07:45.906Z,22.76
2023-05-04T11:08:45.905Z,22.98
2023-05-04T11:09:45.905Z,22.98
2023-05-04T11:10:45.896Z,23.02
2023-05-04T11:11:45.878Z,23.05
2023-05-04T11:12:45.923Z,22.86
2023-05-04T11:13:45.841Z,22.68
2023-05-04T11:14:45.842Z,22.76
2023-05-04T11:15:45.829Z,22.62
2023-05-04T11:16:50.858Z,22.36
2023-05-04T11:17:45.863Z,22.24
2023-05-04T11:18:45.795Z,22.33
2023-05-04T11:19:45.781Z,22.47
2023-05-04T11:20:45.762Z,22.73
2023-05-04T11:21:45.827Z,22.91
2023-05-04T11:22:45.748Z,22.73
2023-05-04T11:23:45.743Z,22.82
2023-05-04T11:24:45.725Z,22.97
2023-05-04T11:25:45.716Z,23.13
2023-05-04T11:26:45.694Z,23.01
2023-05-04T11:27:50.713Z,23.22
2023-05-04T11:28:45.703Z,22.92
2023-05-04T11:29:45.720Z,22.79
2023-05-04T11:30:45.650Z,22.97
2023-05-04T11:31:45.657Z,23.07
2023-05-04T11:32:45.676Z,23.20
2023-05-04T11:33:45.625Z,23.35
2023-05-04T11:34:45.604Z,23.43
2023-05-04T11:35:45.622Z,22.95
2023-05-04T11:36:45.585Z,22.58
2023-05-04T11:37:45.598Z,22.76
2023-05-04T11:38:45.574Z,22.68
2023-05-04T11:39:45.554Z,22.60
2023-05-04T11:40:50.634Z,22.68
2023-05-04T11:41:45.554Z,22.62
2023-05-04T11:42:45.539Z,22.49
2023-05-04T11:43:45.515Z,22.65
2023-05-04T11:44:45.492Z,22.90
2023-05-04T11:45:45.482Z,23.20
2023-05-04T11:46:45.521Z,23.20
2023-05-04T11:47:45.525Z,23.16
2023-05-04T11:48:45.465Z,23.42
2023-05-04T11:49:45.440Z,23.63
2023-05-04T11:50:45.427Z,23.94
2023-05-04T11:51:45.418Z,24.43
2023-05-04T11:52:45.457Z,24.78
2023-05-04T11:53:50.438Z,24.77
2023-05-04T11:54:45.408Z,24.50
2023-05-04T11:55:45.400Z,24.64
2023-05-04T11:56:45.361Z,24.98
2023-05-04T11:57:45.360Z,25.15
2023-05-04T11:58:45.365Z,25.55
2023-05-04T11:59:45.397Z,25.82
2023-05-04T12:00:45.319Z,25.83
2023-05-04T12:01:45.306Z,26.02
2023-05-04T12:02:45.389Z,26.32
2023-05-04T12:03:53.799Z,25.97
2023-05-04T12:04:45.297Z,25.92
2023-05-04T12:05:45.300Z,25.80
2023-05-04T12:06:50.288Z,25.65
2023-05-04T12:07:45.313Z,25.79
2023-05-04T12:08:45.260Z,26.06
2023-05-04T12:09:45.250Z,26.63
2023-05-04T12:10:45.244Z,26.94
2023-05-04T12:11:45.215Z,26.85
2023-05-04T12:12:45.212Z,26.02
2023-05-04T12:13:45.189Z,26.50
2023-05-04T12:14:45.167Z,26.25
2023-05-04T12:15:45.171Z,26.69
2023-05-04T12:16:45.211Z,26.62
2023-05-04T12:17:45.170Z,26.09
2023-05-04T12:18:45.138Z,25.92
2023-05-04T12:19:50.135Z,26.32
2023-05-04T12:20:45.101Z,26.60
2023-05-04T12:21:45.103Z,26.57
2023-05-04T12:22:45.119Z,26.52
2023-05-04T12:23:45.096Z,25.83
2023-05-04T12:24:45.068Z,25.75
2023-05-04T12:25:57.302Z,25.54
2023-05-04T12:26:46.048Z,25.18
2023-05-04T12:27:45.038Z,24.99
2023-05-04T12:28:45.067Z,25.17
2023-05-04T12:29:45.007Z,24.98
2023-05-04T12:30:50.023Z,24.84
2023-05-04T12:31:45.052Z,24.60
2023-05-04T12:32:45.001Z,25.17
2023-05-04T12:33:44.965Z,25.75
2023-05-04T12:34:44.979Z,26.28
2023-05-04T12:35:44.952Z,26.62
2023-05-04T12:36:44.940Z,26.44
2023-05-04T12:37:44.920Z,25.76
2023-05-04T12:38:44.914Z,25.23
2023-05-04T12:39:44.906Z,24.99
2023-05-04T12:40:44.930Z,24.83
2023-05-04T12:41:49.927Z,24.46
2023-05-04T12:42:44.871Z,24.20
2023-05-04T12:43:44.854Z,23.97
2023-05-04T12:44:44.848Z,23.91
2023-05-04T12:45:44.859Z,23.79
2023-05-04T12:46:44.828Z,23.78
2023-05-04T12:47:44.835Z,23.83
2023-05-04T12:48:44.794Z,23.76
2023-05-04T12:49:44.797Z,23.54
2023-05-04T12:50:44.776Z,23.19
2023-05-04T12:51:44.760Z,23.01
2023-05-04T12:52:49.799Z,23.00
2023-05-04T12:53:44.773Z,22.85
2023-05-04T12:54:44.760Z,22.85
2023-05-04T12:55:44.716Z,22.95
2023-05-04T12:56:44.707Z,22.90
2023-05-04T12:57:44.735Z,22.97
2023-05-04T12:58:44.734Z,23.00
2023-05-04T12:59:44.683Z,22.91
2023-05-04T13:00:46.144Z,22.83
2023-05-04T13:01:44.750Z,22.75
2023-05-04T13:02:44.711Z,23.00
2023-05-04T13:03:44.763Z,23.12
2023-05-04T13:04:44.636Z,23.31
2023-05-04T13:05:49.667Z,23.42
2023-05-04T13:06:46.298Z,23.46
2023-05-04T13:07:44.595Z,23.47
2023-05-04T13:08:44.582Z,23.57
2023-05-04T13:09:44.568Z,23.48
2023-05-04T13:10:44.565Z,23.57
2023-05-04T13:11:44.541Z,23.46
2023-05-04T13:12:46.117Z,23.47
2023-05-04T13:13:44.547Z,23.43
2023-05-04T13:14:44.508Z,23.42
2023-05-04T13:15:44.666Z,23.07
2023-05-04T13:16:51.067Z,22.95
2023-05-04T13:17:44.564Z,23.02
2023-05-04T13:18:44.465Z,23.05
2023-05-04T13:19:44.460Z,23.22
2023-05-04T13:20:44.445Z,23.35
2023-05-04T13:21:44.431Z,23.42
2023-05-04T13:22:44.432Z,23.48
2023-05-04T13:23:44.411Z,23.27
2023-05-04T13:24:44.412Z,23.31
2023-05-04T13:25:44.383Z,23.33
2023-05-04T13:26:44.383Z,23.16
2023-05-04T13:27:49.398Z,23.17
2023-05-04T13:28:44.361Z,23.22
2023-05-04T13:29:44.369Z,23.32
2023-05-04T13:30:44.337Z,23.23
2023-05-04T13:31:45.359Z,23.25
2023-05-04T13:32:44.398Z,23.22
2023-05-04T13:33:44.300Z,23.22
2023-05-04T13:34:44.294Z,23.09
2023-05-04T13:35:44.282Z,23.10
2023-05-04T13:36:44.278Z,23.20
2023-05-04T13:37:44.256Z,23.28
2023-05-04T13:38:49.275Z,23.32
2023-05-04T13:39:44.231Z,23.39
2023-05-04T13:40:44.269Z,23.48
2023-05-04T13:41:44.215Z,23.40
2023-05-04T13:42:44.210Z,23.35
2023-05-04T13:43:44.201Z,23.39
2023-05-04T13:44:44.180Z,23.40
2023-05-04T13:45:44.211Z,23.47
2023-05-04T13:46:44.277Z,23.43
2023-05-04T13:47:44.158Z,23.22
2023-05-04T13:48:44.130Z,23.13
2023-05-04T13:49:49.146Z,23.25
2023-05-04T13:50:44.126Z,23.27
2023-05-04T13:51:44.151Z,23.32
2023-05-04T13:52:44.102Z,23.33
2023-05-04T13:53:44.077Z,23.50
2023-05-04T13:54:44.084Z,23.53
2023-05-04T13:55:44.068Z,23.61
2023-05-04T13:56:44.045Z,23.68
2023-05-04T13:57:44.029Z,23.68
2023-05-04T13:58:44.046Z,23.66
2023-05-04T13:59:54.638Z,23.68
2023-05-04T14:00:50.169Z,23.68
2023-05-04T14:01:43.993Z,23.66
2023-05-04T14:02:44.038Z,23.61
2023-05-04T14:03:43.962Z,23.63
2023-05-04T14:04:44.490Z,23.57
2023-05-04T14:05:43.950Z,23.57
2023-05-04T14:06:43.929Z,23.61
2023-05-04T14:07:43.925Z,23.66
2023-05-04T14:08:43.908Z,23.69
2023-05-04T14:09:43.905Z,23.78
2023-05-04T14:10:43.912Z,23.76
2023-05-04T14:11:48.912Z,23.76
2023-05-04T14:12:43.889Z,23.65
2023-05-04T14:13:43.853Z,23.54
2023-05-04T14:14:43.845Z,23.60
2023-05-04T14:15:43.828Z,23.63
2023-05-04T14:16:43.906Z,23.66
2023-05-04T14:17:43.894Z,23.70
2023-05-04T14:18:43.803Z,23.65
2023-05-04T14:19:43.794Z,23.65
2023-05-04T14:20:43.784Z,23.68
2023-05-04T14:21:43.756Z,23.72
2023-05-04T14:22:48.802Z,23.66
2023-05-04T14:23:43.748Z,23.70
2023-05-04T14:24:43.728Z,23.63
2023-05-04T14:25:43.709Z,23.68
2023-05-04T14:26:43.712Z,23.78
2023-05-04T14:27:43.690Z,23.75
2023-05-04T14:28:43.725Z,23.94
2023-05-04T14:29:44.847Z,23.75
2023-05-04T14:30:43.656Z,23.69
2023-05-04T14:31:43.663Z,23.60
2023-05-04T14:32:43.734Z,23.66
2023-05-04T14:33:48.657Z,23.69
2023-05-04T14:34:43.629Z,23.78
2023-05-04T14:35:44.337Z,23.79
2023-05-04T14:36:43.591Z,23.85
2023-05-04T14:37:43.615Z,23.91
2023-05-04T14:38:43.576Z,23.87
2023-05-04T14:39:43.556Z,23.88
2023-05-04T14:40:43.568Z,23.88
2023-05-04T14:41:43.533Z,23.79
2023-05-04T14:42:43.532Z,23.83
2023-05-04T14:43:43.508Z,23.68
2023-05-04T14:44:48.526Z,23.66
2023-05-04T14:45:43.515Z,23.66
2023-05-04T14:46:43.491Z,23.75
2023-05-04T14:47:43.489Z,23.76
2023-05-04T14:48:43.478Z,23.83
2023-05-04T14:49:43.484Z,23.79
2023-05-04T14:50:43.439Z,23.90
2023-05-04T14:51:43.421Z,23.83
2023-05-04T14:52:43.442Z,23.87
2023-05-04T14:53:43.399Z,23.88
2023-05-04T14:54:43.393Z,23.84
2023-05-04T14:55:48.399Z,23.91
2023-05-04T14:56:43.376Z,23.87
2023-05-04T14:57:43.363Z,23.84
2023-05-04T14:58:43.364Z,23.90
2023-05-04T14:59:43.337Z,23.88
2023-05-04T15:00:43.323Z,23.84
2023-05-04T15:01:43.382Z,23.83
2023-05-04T15:02:43.392Z,23.85
2023-05-04T15:03:43.371Z,23.84
2023-05-04T15:04:43.312Z,23.93
2023-05-04T15:05:43.270Z,24.02
2023-05-04T15:06:48.286Z,24.00
2023-05-04T15:07:43.244Z,24.03
2023-05-04T15:08:43.243Z,23.97
2023-05-04T15:09:43.217Z,24.09
2023-05-04T15:10:43.245Z,24.09
2023-05-04T15:11:43.208Z,23.98
2023-05-04T15:12:43.233Z,23.95
2023-05-04T15:13:43.188Z,23.91
2023-05-04T15:14:43.165Z,23.84
2023-05-04T15:15:43.200Z,23.80
2023-05-04T15:16:43.197Z,23.69
2023-05-04T15:17:48.222Z,23.76
2023-05-04T15:18:43.124Z,23.76
2023-05-04T15:19:43.112Z,23.84
2023-05-04T15:20:43.128Z,23.91
2023-05-04T15:21:43.103Z,23.94
2023-05-04T15:22:43.098Z,24.03
2023-05-04T15:23:43.064Z,23.95
2023-05-04T15:24:43.053Z,23.98
2023-05-04T15:25:43.053Z,23.90
2023-05-04T15:26:43.037Z,23.98
2023-05-04T15:27:43.026Z,24.02
2023-05-04T15:28:48.071Z,24.02
2023-05-04T15:29:43.004Z,24.09
2023-05-04T15:30:42.989Z,24.08
2023-05-04T15:31:43.000Z,24.12
2023-05-04T15:32:42.998Z,24.12
2023-05-04T15:33:42.951Z,24.12
2023-05-04T15:34:50.635Z,24.03
2023-05-04T15:35:43.928Z,24.06
2023-05-04T15:36:42.935Z,23.97
2023-05-04T15:37:42.906Z,23.88
2023-05-04T15:38:42.905Z,23.95
2023-05-04T15:39:47.912Z,24.00
2023-05-04T15:40:42.883Z,24.02
2023-05-04T15:41:42.872Z,24.12
2023-05-04T15:42:42.854Z,24.09
2023-05-04T15:43:42.835Z,24.05
2023-05-04T15:44:42.836Z,24.13
2023-05-04T15:45:42.814Z,24.06
2023-05-04T15:46:42.845Z,24.15
2023-05-04T15:47:42.841Z,24.25
2023-05-04T15:48:42.783Z,24.13
2023-05-04T15:49:42.776Z,24.13
2023-05-04T15:50:47.783Z,24.00
2023-05-04T15:51:42.747Z,23.98
2023-05-04T15:52:42.769Z,24.10
2023-05-04T15:53:42.732Z,24.15
2023-05-04T15:54:42.734Z,24.12
2023-05-04T15:55:42.702Z,24.16
2023-05-04T15:56:42.695Z,24.21
2023-05-04T15:57:42.695Z,24.27
2023-05-04T15:58:42.714Z,24.27
2023-05-04T15:59:42.661Z,24.18
2023-05-04T16:00:42.660Z,24.25
2023-05-04T16:01:47.765Z,24.28
2023-05-04T16:02:42.723Z,24.31
2023-05-04T16:03:42.657Z,24.24
2023-05-04T16:04:42.670Z,24.22
2023-05-04T16:05:42.589Z,24.22
2023-05-04T16:06:42.579Z,24.25
2023-05-04T16:07:42.583Z,24.20
2023-05-04T16:08:42.611Z,24.10
2023-05-04T16:09:42.545Z,24.20
2023-05-04T16:10:42.556Z,24.27
2023-05-04T16:11:42.523Z,24.25
2023-05-04T16:12:47.571Z,24.34
2023-05-04T16:13:42.502Z,24.12
2023-05-04T16:14:42.493Z,24.00
2023-05-04T16:15:42.478Z,24.09
2023-05-04T16:16:42.518Z,24.00
2023-05-04T16:17:42.491Z,23.90
2023-05-04T16:18:42.457Z,23.98
2023-05-04T16:19:42.438Z,23.88
2023-05-04T16:20:42.434Z,24.00
2023-05-04T16:21:42.435Z,24.00
2023-05-04T16:22:42.428Z,24.12
2023-05-04T16:23:47.427Z,24.06
2023-05-04T16:24:42.383Z,24.10
2023-05-04T16:25:42.365Z,24.13
2023-05-04T16:26:42.394Z,24.10
2023-05-04T16:27:42.353Z,24.15
2023-05-04T16:28:42.373Z,24.12
2023-05-04T16:29:42.322Z,24.20
2023-05-04T16:30:42.412Z,24.06
2023-05-04T16:31:42.367Z,24.09
2023-05-04T16:32:42.362Z,24.08
2023-05-04T16:33:42.281Z,24.02
2023-05-04T16:34:47.324Z,23.95
2023-05-04T16:35:42.270Z,23.94
2023-05-04T16:36:42.258Z,23.85
2023-05-04T16:37:42.235Z,23.84
2023-05-04T16:38:42.255Z,23.84
2023-05-04T16:39:42.242Z,23.84
2023-05-04T16:40:42.246Z,23.80
2023-05-04T16:41:42.197Z,23.84
2023-05-04T16:42:42.208Z,23.91
2023-05-04T16:43:42.182Z,23.84
2023-05-04T16:44:42.160Z,23.80
2023-05-04T16:45:47.193Z,23.80
2023-05-04T16:46:42.182Z,23.87
2023-05-04T16:47:42.249Z,23.85
2023-05-04T16:48:42.115Z,23.87
2023-05-04T16:49:42.100Z,23.91
2023-05-04T16:50:42.117Z,23.87
2023-05-04T16:51:42.090Z,23.91
2023-05-04T16:52:42.085Z,23.84
2023-05-04T16:53:42.064Z,23.84
2023-05-04T16:54:42.057Z,23.87
2023-05-04T16:55:42.063Z,23.83
2023-05-04T16:56:47.054Z,23.80
2023-05-04T16:57:42.017Z,23.84
2023-05-04T16:58:42.029Z,23.85
2023-05-04T16:59:41.995Z,23.91
2023-05-04T17:00:41.979Z,23.93
2023-05-04T17:01:42.021Z,23.84
2023-05-04T17:02:42.334Z,23.88
2023-05-04T17:03:42.048Z,23.88
2023-05-04T17:04:41.963Z,23.88
2023-05-04T17:05:41.920Z,23.88
2023-05-04T17:06:41.916Z,23.88
2023-05-04T17:07:46.919Z,23.91
2023-05-04T17:08:41.893Z,23.88
2023-05-04T17:09:41.900Z,23.79
2023-05-04T17:10:41.890Z,23.87
2023-05-04T17:11:41.895Z,23.80
2023-05-04T17:12:42.176Z,23.84
2023-05-04T17:13:41.838Z,23.84
2023-05-04T17:14:41.856Z,23.83
2023-05-04T17:15:41.831Z,23.88
2023-05-04T17:16:49.345Z,23.80
2023-05-04T17:17:41.856Z,23.88
2023-05-04T17:18:46.825Z,23.83
2023-05-04T17:19:41.763Z,23.80
2023-05-04T17:20:41.772Z,23.83
2023-05-04T17:21:41.745Z,23.84
2023-05-04T17:22:41.764Z,23.73
2023-05-04T17:23:41.736Z,23.78
2023-05-04T17:24:44.010Z,23.80
2023-05-04T17:25:41.701Z,23.73
2023-05-04T17:26:41.731Z,23.70
2023-05-04T17:27:41.705Z,23.73
2023-05-04T17:28:41.680Z,23.79
2023-05-04T17:29:46.673Z,23.75
2023-05-04T17:30:41.787Z,23.80
2023-05-04T17:31:41.708Z,23.72
2023-05-04T17:32:41.659Z,23.72
2023-05-04T17:33:41.616Z,23.78
2023-05-04T17:34:41.600Z,23.80
2023-05-04T17:35:41.596Z,23.75
2023-05-04T17:36:41.584Z,23.85
2023-05-04T17:37:41.579Z,23.78
2023-05-04T17:38:41.608Z,23.70
2023-05-04T17:39:41.624Z,23.68
2023-05-04T17:40:46.551Z,23.69
2023-05-04T17:41:41.521Z,23.68
2023-05-04T17:42:41.582Z,23.61
2023-05-04T17:43:41.523Z,23.65
2023-05-04T17:44:41.488Z,23.68
2023-05-04T17:45:41.531Z,23.54
2023-05-04T17:46:41.515Z,23.58
2023-05-04T17:47:41.547Z,23.58
2023-05-04T17:48:41.522Z,23.51
2023-05-04T17:49:41.432Z,23.54
2023-05-04T17:50:41.419Z,23.55
2023-05-04T17:51:46.476Z,23.51
2023-05-04T17:52:41.397Z,23.50
2023-05-04T17:53:41.394Z,23.50